Graham, WA

4:50 PM PDT on July 30, 2016 (GMT -0700)
| | Change Station

Elev -9999 ft 0.00 °N, 0.00 °E | Updated

Partly Cloudy
Partly Cloudy
71 °F
Feels Like 71 °F
N
5
Wind Variable Wind from WSW
Gusts mph

Today
High -- | Low -- °F
--% Chance of Precip.
Yesterday
High -- | Low -- °F
Precip. -- in
Pressure 29.94 in
Visibility -9999.0 miles
Clouds Clear
Dew Point 53 °F
Humidity 53%
Rainfall --
Snow Depth Not available.
5:46 AM 8:43 PM
Waning Crescent, 10% visible
METAR KPLU 302335Z AUTO 26006G13KT CLR 26/12 A2994 RMK AO2
Pressure 29.94 in
Visibility -9999.0 miles
Clouds Clear
Dew Point 53 °F
Humidity 53%
Rainfall --
Snow Depth Not available.
5:46 AM 8:43 PM
Waning Crescent, 10% visible
METAR KPLU 302335Z AUTO 26006G13KT CLR 26/12 A2994 RMK AO2

10-Day Weather Forecast

Almanac

Astronomy

Jul. 30, 2016 Rise Set
Actual Time
Civil Twilight
Nautical Twilight
Astronomical Twilight
Moon
Length of Visible Light
Length of Day
Tomorrow will be .
, % of the Moon is Illuminated

Today's Extremes

State Highs State Lows

Community

WunderPhotos

Upload Photos

1,928,680 photos uploaded!

WunderBlog® & News

Nearby

Air Quality

  Air Quality AQ Index Pollutant
Not available.

Snow Depth

Station Depth Elevation

Earthquake Activity

City Distance Mag. Time & Date
Minimum magnitude displayed is 2.5.

Coastal Water Temperatures

Place Temperature

Stations

Nearby Weather Stations

Station Location Temp. Windchill Dew Point Humidity Wind Precip. Elev Updated Type
                   

Watches & Warnings

There are currently no watches in effect.